Aeroporto :
LOGIN :

Iscrizione | Disclaimer

   EN    FR    IT 

 










Sommario :    VFR   VFR Marginale   IFR   IFR Intensivo   IFR Molto Intensivo
Visibilità : 
Base nubi : 
>= 8 km
>= 3000ft
5 / 8 km
1000 / 3000 ft
1500m / 5 km
500 / 1000 ft
800 / 1500m
200 / 500 ft
< 800m
< 200 ft
Simboli :   Temporali  Nebbia  Neve Forte  Precipitazioni Forti  Vento > 20 kt
SIGMETs :   Varie  Temporali  Ghiacco  Turbolenza  Onda orograficha  Ceneri Vulcaniche






- Altitudine del aeroporto : -11 ft
- Codice IATA : AMS


EHAM - Amsterdam Schiphol

ULTIMO METAR :
  • 071455Z 30009KT 260V340 9999 FEW048 22/10 Q1025 NOSIG

METARs OBSOLETI :
  • 071425Z 31010KT 280V010 9999 FEW048 22/09 Q1025 NOSIG
  • 071355Z 31010KT 270V350 9999 FEW048 22/10 Q1025 NOSIG
  • 071325Z 31010KT 280V340 9999 FEW048 22/10 Q1025 NOSIG
  • 071255Z 30007KT 250V350 9999 FEW048 22/10 Q1025 NOSIG
  • 071225Z 32007KT 210V020 9999 FEW048 22/10 Q1025 NOSIG

TAF TAF EHAM
Valido dal 07 a 12 ore il 08 a 18 ore UTC


071106Z 0712/0818 32010KT 9999 FEW045
BECMG 0718/0721 01003KT
PROB40 0801/0806 7000 MIFG
PROB30
TEMPO 0802/0806 2000 BCFG
BECMG 0809/0812 34008KT



MetMap, La meteo Aeronautica in un colpo d'occhio ! - Copyright ORBIFLY Dicembre 2007 - Disclaimer

ORBIFLY MET'MAP TEAM :

Programmazione e sviluppo : Alexandra Zaïnal
Concezione : Baudouin d'Aumeries
Supporto tecnico e logistico : Manuel Goepfert
Aiuto : Marc-Olivier Méhu
Aiuto per la traduzione : Arnaldo La Scala




FONTI E CREDITI :

   NOAA